createdAt,value
2018-09-20T00:00:24.664Z,66.10
2018-09-20T00:02:52.326Z,66.20
2018-09-20T00:05:20.009Z,66.30
2018-09-20T00:07:47.557Z,66.30
2018-09-20T00:10:15.127Z,66.20
2018-09-20T00:12:42.668Z,66.20
2018-09-20T00:15:10.530Z,66.20
2018-09-20T00:17:38.207Z,66.20
2018-09-20T00:20:06.149Z,66.40
2018-09-20T00:22:33.885Z,66.20
2018-09-20T00:25:01.778Z,66.40
2018-09-20T00:27:29.491Z,66.40
2018-09-20T00:29:58.056Z,66.40
2018-09-20T00:32:25.736Z,66.30
2018-09-20T00:34:53.370Z,66.40
2018-09-20T00:37:20.948Z,66.50
2018-09-20T00:39:48.515Z,66.50
2018-09-20T00:42:16.125Z,66.50
2018-09-20T00:44:43.654Z,66.60
2018-09-20T00:47:11.409Z,66.50
2018-09-20T00:49:38.948Z,66.60
2018-09-20T00:52:06.700Z,66.50
2018-09-20T00:54:34.612Z,66.60
2018-09-20T00:57:02.518Z,66.70
2018-09-20T00:59:30.389Z,66.70
2018-09-20T01:01:58.096Z,66.60
2018-09-20T01:04:25.862Z,66.60
2018-09-20T01:06:53.692Z,66.50
2018-09-20T01:09:21.324Z,67.40
2018-09-20T01:11:48.879Z,66.60
2018-09-20T01:14:16.417Z,66.60
2018-09-20T01:16:44.028Z,66.60
2018-09-20T01:19:11.574Z,66.60
2018-09-20T01:21:39.120Z,66.70
2018-09-20T01:24:06.773Z,67.20
2018-09-20T01:26:34.758Z,67.30
2018-09-20T01:29:02.683Z,66.50
2018-09-20T01:31:30.853Z,66.60
2018-09-20T01:33:58.764Z,66.60
2018-09-20T01:36:26.372Z,66.50
2018-09-20T01:38:54.213Z,66.50
2018-09-20T01:41:22.024Z,66.50
2018-09-20T01:43:49.680Z,66.50
2018-09-20T01:46:17.256Z,66.50
2018-09-20T01:48:44.808Z,66.50
2018-09-20T01:51:12.463Z,66.50
2018-09-20T01:53:40.056Z,66.50
2018-09-20T01:56:11.901Z,66.60
2018-09-20T01:58:39.534Z,66.50
2018-09-20T02:01:07.244Z,66.50
2018-09-20T02:03:35.008Z,66.50
2018-09-20T02:06:02.902Z,66.50
2018-09-20T02:08:30.895Z,66.50
2018-09-20T02:10:58.714Z,66.60
2018-09-20T02:13:26.383Z,66.60
2018-09-20T02:15:54.472Z,66.60
2018-09-20T02:18:22.291Z,66.70
2018-09-20T02:20:50.117Z,66.70
2018-09-20T02:23:17.675Z,66.80
2018-09-20T02:25:46.098Z,66.70
2018-09-20T02:28:13.690Z,66.80
2018-09-20T02:30:41.249Z,66.70
2018-09-20T02:33:08.805Z,66.80
2018-09-20T02:35:36.436Z,66.80
2018-09-20T02:38:04.134Z,66.80
2018-09-20T02:40:32.147Z,66.90
2018-09-20T02:43:00.150Z,66.80
2018-09-20T02:45:27.985Z,66.80
2018-09-20T02:47:55.631Z,66.70
2018-09-20T02:50:23.165Z,66.80
2018-09-20T02:52:50.737Z,66.70
2018-09-20T02:55:18.452Z,66.80
2018-09-20T02:57:45.985Z,66.70
2018-09-20T03:00:13.544Z,66.70
2018-09-20T03:02:41.081Z,66.70
2018-09-20T03:05:08.632Z,66.60
2018-09-20T03:07:36.514Z,66.60
2018-09-20T03:10:04.552Z,66.50
2018-09-20T03:12:32.644Z,66.50
2018-09-20T03:15:00.725Z,66.60
2018-09-20T03:17:28.818Z,66.60
2018-09-20T03:19:56.877Z,66.60
2018-09-20T03:22:24.810Z,66.60
2018-09-20T03:24:52.315Z,66.70
2018-09-20T03:27:19.872Z,66.70
2018-09-20T03:29:47.443Z,66.50
2018-09-20T03:32:15.014Z,66.60
2018-09-20T03:34:42.569Z,66.50
2018-09-20T03:37:10.101Z,66.40
2018-09-20T03:39:37.912Z,66.50
2018-09-20T03:42:06.189Z,66.50
2018-09-20T03:44:34.260Z,66.40
2018-09-20T03:47:02.535Z,66.50
2018-09-20T03:49:30.790Z,66.50
2018-09-20T03:51:58.804Z,66.50
2018-09-20T03:54:26.515Z,66.60
2018-09-20T03:56:54.144Z,66.50
2018-09-20T03:59:22.064Z,66.50
2018-09-20T04:01:49.663Z,66.60
2018-09-20T04:04:17.252Z,66.60
2018-09-20T04:06:44.788Z,66.60
2018-09-20T04:09:12.669Z,66.50
2018-09-20T04:11:40.620Z,66.50
2018-09-20T04:14:08.289Z,66.50
2018-09-20T04:16:36.464Z,66.50
2018-09-20T04:19:04.132Z,66.40
2018-09-20T04:21:38.068Z,66.40
2018-09-20T04:24:06.547Z,66.50
2018-09-20T04:26:34.588Z,66.50
2018-09-20T04:29:02.727Z,66.70
2018-09-20T04:31:31.331Z,66.50
2018-09-20T04:34:00.552Z,66.50
2018-09-20T04:36:28.751Z,66.50
2018-09-20T04:38:56.332Z,66.50
2018-09-20T04:41:23.987Z,66.60
2018-09-20T04:43:51.568Z,66.70
2018-09-20T04:46:19.157Z,66.70
2018-09-20T04:48:46.752Z,66.70
2018-09-20T04:51:14.312Z,66.60
2018-09-20T04:53:41.867Z,66.50
2018-09-20T04:56:09.944Z,66.70
2018-09-20T04:58:37.797Z,66.60
2018-09-20T05:01:05.813Z,66.60
2018-09-20T05:03:34.014Z,62.80
2018-09-20T05:06:02.229Z,65.30
2018-09-20T05:08:30.357Z,65.70
2018-09-20T05:10:58.698Z,65.70
2018-09-20T05:13:26.244Z,65.70
2018-09-20T05:15:53.811Z,65.60
2018-09-20T05:18:21.356Z,65.60
2018-09-20T05:20:48.988Z,65.80
2018-09-20T05:23:16.527Z,65.70
2018-09-20T05:25:44.067Z,65.60
2018-09-20T05:28:11.713Z,65.60
2018-09-20T05:30:39.298Z,65.70
2018-09-20T05:33:07.292Z,65.60
2018-09-20T05:35:35.375Z,65.70
2018-09-20T05:38:03.240Z,65.70
2018-09-20T05:40:31.217Z,65.80
2018-09-20T05:42:59.163Z,65.60
2018-09-20T05:45:26.771Z,65.80
2018-09-20T05:47:54.343Z,65.60
2018-09-20T05:50:21.932Z,65.60
2018-09-20T05:52:49.511Z,65.50
2018-09-20T05:55:17.072Z,65.60
2018-09-20T05:57:45.025Z,65.40
2018-09-20T06:00:12.659Z,65.40
2018-09-20T06:02:40.205Z,65.50
2018-09-20T06:05:07.816Z,65.40
2018-09-20T06:07:35.577Z,65.30
2018-09-20T06:10:03.551Z,65.10
2018-09-20T06:12:31.697Z,65.00
2018-09-20T06:15:00.076Z,65.00
2018-09-20T06:17:28.045Z,65.00
2018-09-20T06:19:55.982Z,64.40
2018-09-20T06:22:23.853Z,64.10
2018-09-20T06:24:51.464Z,63.80
2018-09-20T06:27:51.368Z,63.80
2018-09-20T06:30:18.951Z,63.40
2018-09-20T06:32:46.576Z,63.10
2018-09-20T06:35:14.133Z,62.70
2018-09-20T06:37:41.692Z,63.00
2018-09-20T06:40:09.580Z,62.40
2018-09-20T06:42:37.109Z,62.60
2018-09-20T06:45:04.686Z,61.60
2018-09-20T06:47:32.245Z,62.40
2018-09-20T06:50:00.176Z,62.30
2018-09-20T06:52:27.973Z,62.30
2018-09-20T06:54:56.051Z,62.30
2018-09-20T06:57:23.790Z,62.00
2018-09-20T06:59:51.583Z,62.10
2018-09-20T07:02:19.148Z,61.80
2018-09-20T07:04:46.712Z,61.90
2018-09-20T07:07:14.414Z,61.70
2018-09-20T07:09:41.965Z,61.80
2018-09-20T07:12:09.523Z,61.70
2018-09-20T07:14:37.142Z,61.60
2018-09-20T07:17:04.713Z,61.40
2018-09-20T07:19:32.482Z,61.50
2018-09-20T07:22:00.170Z,61.40
2018-09-20T07:24:27.954Z,61.30
2018-09-20T07:26:55.824Z,61.10
2018-09-20T07:29:24.658Z,61.40
2018-09-20T07:31:52.391Z,61.40
2018-09-20T07:34:20.004Z,61.30
2018-09-20T07:36:47.750Z,61.30
2018-09-20T07:39:15.384Z,62.00
2018-09-20T07:41:42.951Z,61.30
2018-09-20T07:44:10.595Z,61.20
2018-09-20T07:46:38.142Z,61.10
2018-09-20T07:49:05.720Z,61.00
2018-09-20T07:51:33.552Z,61.00
2018-09-20T07:54:01.278Z,60.90
2018-09-20T07:56:29.013Z,60.90
2018-09-20T07:58:56.821Z,60.80
2018-09-20T08:01:24.691Z,60.90
2018-09-20T08:03:52.680Z,60.90
2018-09-20T08:06:20.484Z,60.70
2018-09-20T08:08:48.036Z,60.70
2018-09-20T08:11:15.597Z,60.70
2018-09-20T08:13:43.174Z,60.60
2018-09-20T08:16:10.712Z,60.50
2018-09-20T08:18:38.281Z,60.40
2018-09-20T08:21:06.244Z,60.50
2018-09-20T08:23:34.080Z,60.40
2018-09-20T08:26:01.780Z,60.50
2018-09-20T08:28:29.468Z,60.40
2018-09-20T08:30:57.402Z,60.40
2018-09-20T08:33:25.235Z,60.20
2018-09-20T08:35:53.448Z,60.30
2018-09-20T08:38:21.251Z,60.20
2018-09-20T08:40:48.786Z,60.20
2018-09-20T08:43:16.335Z,60.20
2018-09-20T08:45:43.904Z,60.10
2018-09-20T08:48:11.444Z,60.10
2018-09-20T08:50:38.994Z,59.90
2018-09-20T08:53:06.789Z,59.90
2018-09-20T08:55:34.324Z,59.90
2018-09-20T08:58:02.036Z,59.90
2018-09-20T09:00:29.776Z,59.90
2018-09-20T09:02:57.653Z,59.80
2018-09-20T09:05:25.444Z,59.90
2018-09-20T09:07:53.333Z,59.70
2018-09-20T09:10:20.992Z,59.80
2018-09-20T09:12:48.540Z,59.60
2018-09-20T09:15:16.088Z,59.60
2018-09-20T09:17:43.640Z,59.50
2018-09-20T09:20:11.180Z,59.20
2018-09-20T09:22:38.722Z,59.20
2018-09-20T09:25:06.305Z,58.90
2018-09-20T09:27:33.963Z,58.90
2018-09-20T09:30:01.650Z,58.70
2018-09-20T09:32:29.396Z,58.90
2018-09-20T09:34:57.202Z,58.80
2018-09-20T09:37:25.000Z,59.40
2018-09-20T09:39:52.580Z,59.20
2018-09-20T09:42:20.237Z,59.30
2018-09-20T09:44:47.904Z,59.10
2018-09-20T09:47:15.447Z,58.90
2018-09-20T09:49:42.988Z,59.10
2018-09-20T09:52:10.549Z,59.50
2018-09-20T09:54:38.102Z,59.80
2018-09-20T09:57:05.992Z,59.10
2018-09-20T09:59:33.700Z,59.00
2018-09-20T10:02:01.447Z,59.00
2018-09-20T10:04:29.411Z,59.70
2018-09-20T10:06:57.072Z,59.20
2018-09-20T10:09:24.668Z,59.20
2018-09-20T10:11:52.242Z,59.20
2018-09-20T10:14:19.807Z,59.20
2018-09-20T10:16:47.465Z,59.30
2018-09-20T10:19:14.998Z,59.20
2018-09-20T10:21:42.550Z,59.10
2018-09-20T10:24:10.113Z,59.10
2018-09-20T10:26:37.701Z,58.60
2018-09-20T10:29:05.394Z,58.70
2018-09-20T10:31:33.228Z,58.70
2018-09-20T10:34:00.998Z,58.80
2018-09-20T10:36:28.870Z,58.80
2018-09-20T10:38:56.696Z,58.80
2018-09-20T10:41:24.455Z,58.70
2018-09-20T10:43:52.170Z,58.80
2018-09-20T10:46:19.768Z,59.00
2018-09-20T10:48:47.349Z,59.00
2018-09-20T10:51:14.898Z,59.20
2018-09-20T10:53:42.496Z,59.10
2018-09-20T10:56:10.062Z,58.80
2018-09-20T10:58:37.852Z,58.60
2018-09-20T11:01:05.430Z,58.70
2018-09-20T11:03:33.356Z,58.60
2018-09-20T11:06:01.060Z,58.40
2018-09-20T11:08:28.934Z,58.40
2018-09-20T11:10:56.784Z,58.30
2018-09-20T11:13:24.418Z,58.70
2018-09-20T11:15:51.969Z,58.70
2018-09-20T11:18:19.923Z,58.50
2018-09-20T11:20:47.482Z,58.00
2018-09-20T11:23:15.160Z,58.10
2018-09-20T11:25:42.747Z,58.20
2018-09-20T11:28:10.385Z,58.30
2018-09-20T11:30:38.091Z,58.20
2018-09-20T11:33:06.065Z,58.20
2018-09-20T11:35:33.633Z,58.30
2018-09-20T11:38:01.457Z,58.30
2018-09-20T11:40:29.227Z,58.40
2018-09-20T11:42:57.214Z,58.30
2018-09-20T11:45:25.277Z,58.10
2018-09-20T11:47:52.852Z,57.50
2018-09-20T11:50:20.480Z,57.60
2018-09-20T11:52:48.210Z,57.70
2018-09-20T11:55:15.756Z,57.90
2018-09-20T11:57:43.348Z,58.20
2018-09-20T12:00:11.215Z,58.20
2018-09-20T12:02:38.795Z,58.10
2018-09-20T12:05:06.396Z,58.10
2018-09-20T12:07:33.960Z,58.10
2018-09-20T12:10:01.639Z,58.20
2018-09-20T12:12:29.409Z,58.30
2018-09-20T12:14:57.362Z,58.40
2018-09-20T12:17:25.063Z,58.50
2018-09-20T12:19:52.753Z,58.30
2018-09-20T12:22:20.417Z,58.30
2018-09-20T12:24:47.994Z,58.10
2018-09-20T12:27:15.568Z,58.00
2018-09-20T12:29:43.103Z,58.40
2018-09-20T12:32:10.671Z,57.90
2018-09-20T12:34:38.192Z,57.70
2018-09-20T12:37:05.989Z,57.60
2018-09-20T12:39:33.611Z,57.50
2018-09-20T12:42:01.365Z,57.40
2018-09-20T12:44:29.280Z,57.30
2018-09-20T12:46:56.988Z,57.20
2018-09-20T12:49:24.888Z,57.20
2018-09-20T12:51:52.555Z,57.00
2018-09-20T12:54:20.117Z,57.20
2018-09-20T12:56:47.732Z,57.30
2018-09-20T12:59:15.729Z,57.00
2018-09-20T13:01:43.364Z,56.90
2018-09-20T13:04:10.916Z,56.20
2018-09-20T13:06:38.494Z,56.50
2018-09-20T13:09:07.316Z,57.10
2018-09-20T13:11:35.064Z,56.40
2018-09-20T13:14:02.811Z,56.20
2018-09-20T13:16:30.529Z,56.00
2018-09-20T13:18:58.225Z,56.00
2018-09-20T13:21:26.402Z,55.80
2018-09-20T13:23:55.015Z,55.80
2018-09-20T13:26:22.755Z,55.70
2018-09-20T13:28:50.402Z,55.90
2018-09-20T13:31:18.008Z,55.80
2018-09-20T13:33:45.711Z,55.80
2018-09-20T13:36:13.469Z,55.70
2018-09-20T13:38:43.789Z,55.50
2018-09-20T13:41:11.676Z,55.30
2018-09-20T13:43:43.681Z,55.20
2018-09-20T13:46:11.378Z,55.30
2018-09-20T13:48:40.866Z,55.20
2018-09-20T13:51:08.681Z,55.00
2018-09-20T13:53:36.445Z,55.10
2018-09-20T13:56:04.232Z,54.90
2018-09-20T13:58:31.871Z,55.00
2018-09-20T14:00:59.402Z,55.50
2018-09-20T14:03:26.987Z,55.50
2018-09-20T14:05:54.602Z,55.50
2018-09-20T14:08:22.119Z,55.20
2018-09-20T14:10:49.748Z,55.30
2018-09-20T14:13:17.476Z,54.90
2018-09-20T14:15:45.230Z,54.80
2018-09-20T14:18:12.967Z,54.70
2018-09-20T14:20:40.630Z,54.60
2018-09-20T14:23:08.409Z,54.70
2018-09-20T14:25:36.238Z,54.30
2018-09-20T14:28:03.870Z,54.00
2018-09-20T14:30:31.483Z,54.00
2018-09-20T14:32:59.604Z,54.10
2018-09-20T14:35:27.496Z,54.20
2018-09-20T14:37:55.404Z,54.20
2018-09-20T14:40:23.019Z,54.40
2018-09-20T14:42:50.584Z,54.10
2018-09-20T14:45:18.138Z,53.80
2018-09-20T14:47:45.669Z,53.50
2018-09-20T14:50:13.702Z,53.20
2018-09-20T14:52:41.330Z,53.10
2018-09-20T14:55:08.804Z,53.00
2018-09-20T14:57:36.373Z,53.30
2018-09-20T15:00:04.068Z,53.30
2018-09-20T15:02:31.767Z,53.10
2018-09-20T15:04:59.792Z,53.00
2018-09-20T15:07:27.537Z,53.60
2018-09-20T15:09:55.463Z,53.50
2018-09-20T15:12:23.057Z,52.80
2018-09-20T15:14:50.595Z,52.40
2018-09-20T15:17:18.274Z,52.30
2018-09-20T15:19:45.826Z,52.30
2018-09-20T15:22:13.361Z,52.20
2018-09-20T15:24:40.988Z,52.20
2018-09-20T15:27:08.468Z,52.50
2018-09-20T15:29:36.189Z,52.40
2018-09-20T15:32:03.805Z,52.50
2018-09-20T15:34:31.634Z,52.60
2018-09-20T15:36:59.459Z,52.50
2018-09-20T15:39:27.265Z,52.70
2018-09-20T15:41:54.980Z,52.70
2018-09-20T15:44:22.568Z,52.60
2018-09-20T15:46:50.127Z,52.60
2018-09-20T15:49:17.780Z,52.60
2018-09-20T15:51:45.339Z,52.60
2018-09-20T15:54:12.883Z,52.60
2018-09-20T15:56:40.764Z,52.50
2018-09-20T15:59:08.294Z,52.60
2018-09-20T16:01:36.042Z,52.50
2018-09-20T16:04:03.784Z,52.50
2018-09-20T16:06:31.492Z,52.60
2018-09-20T16:08:59.336Z,52.60
2018-09-20T16:16:59.581Z,53.20
2018-09-20T16:19:27.615Z,53.20
2018-09-20T16:21:55.908Z,53.10
2018-09-20T16:24:23.481Z,53.20
2018-09-20T16:26:51.053Z,53.20
2018-09-20T16:30:23.612Z,53.20
2018-09-20T16:32:56.981Z,53.00
2018-09-20T16:35:28.917Z,52.90
2018-09-20T16:38:13.356Z,52.90
2018-09-20T16:40:41.357Z,52.90
2018-09-20T16:43:08.940Z,52.90
2018-09-20T16:45:36.771Z,53.00
2018-09-20T16:48:04.456Z,53.10
2018-09-20T16:50:32.185Z,53.10
2018-09-20T16:52:59.986Z,53.30
2018-09-20T16:55:27.703Z,53.40
2018-09-20T16:57:55.545Z,53.40
2018-09-20T17:00:23.213Z,53.60
2018-09-20T17:02:50.804Z,54.30
2018-09-20T17:05:18.448Z,53.80
2018-09-20T17:07:45.988Z,53.90
2018-09-20T17:10:13.616Z,53.60
2018-09-20T17:12:41.196Z,54.10
2018-09-20T17:15:08.668Z,54.30
2018-09-20T17:17:36.273Z,54.40
2018-09-20T17:20:04.158Z,54.60
2018-09-20T17:22:31.900Z,54.80
2018-09-20T17:24:59.691Z,54.80
2018-09-20T17:27:27.428Z,55.00
2018-09-20T17:29:55.400Z,54.90
2018-09-20T17:32:23.054Z,55.00
2018-09-20T17:34:50.789Z,55.00
2018-09-20T17:37:18.728Z,55.20
2018-09-20T17:39:46.664Z,55.30
2018-09-20T17:42:14.596Z,55.40
2018-09-20T17:44:42.173Z,55.40
2018-09-20T17:47:09.829Z,55.50
2018-09-20T17:49:37.372Z,55.60
2018-09-20T17:52:05.160Z,55.70
2018-09-20T17:54:32.990Z,55.80
2018-09-20T17:57:00.841Z,55.90
2018-09-20T17:59:28.966Z,56.00
2018-09-20T18:01:56.839Z,56.70
2018-09-20T18:04:24.570Z,56.20
2018-09-20T18:06:52.301Z,56.30
2018-09-20T18:09:19.857Z,56.40
2018-09-20T18:11:47.504Z,56.50
2018-09-20T18:14:15.068Z,56.50
2018-09-20T18:16:42.652Z,56.50
2018-09-20T18:19:10.323Z,56.60
2018-09-20T18:21:38.055Z,56.70
2018-09-20T18:24:05.764Z,56.80
2018-09-20T18:26:33.637Z,56.80
2018-09-20T18:29:01.684Z,56.80
2018-09-20T18:31:29.822Z,56.80
2018-09-20T18:33:58.005Z,56.90
2018-09-20T18:36:25.825Z,57.00
2018-09-20T18:38:53.441Z,57.00
2018-09-20T18:41:21.028Z,57.10
2018-09-20T18:43:48.645Z,57.10
2018-09-20T18:46:16.625Z,57.20
2018-09-20T18:48:44.201Z,57.10
2018-09-20T18:51:11.835Z,57.10
2018-09-20T18:53:39.396Z,57.10
2018-09-20T18:56:07.444Z,57.20
2018-09-20T18:58:35.210Z,57.30
2018-09-20T19:01:03.235Z,57.30
2018-09-20T19:03:31.245Z,57.30
2018-09-20T19:05:59.289Z,57.40
2018-09-20T19:08:27.986Z,57.40
2018-09-20T19:10:55.988Z,57.50
2018-09-20T19:13:23.657Z,57.60
2018-09-20T19:15:51.356Z,57.50
2018-09-20T19:18:18.978Z,57.60
2018-09-20T19:20:46.590Z,57.70
2018-09-20T19:23:14.175Z,57.80
2018-09-20T19:25:41.772Z,57.80
2018-09-20T19:28:09.395Z,57.70
2018-09-20T19:30:36.962Z,57.80
2018-09-20T19:33:04.772Z,57.90
2018-09-20T19:35:32.861Z,58.00
2018-09-20T19:38:00.660Z,58.10
2018-09-20T19:40:28.574Z,58.10
2018-09-20T19:42:56.627Z,58.10
2018-09-20T19:45:24.212Z,58.20
2018-09-20T19:47:51.805Z,58.30
2018-09-20T19:50:19.375Z,58.40
2018-09-20T19:52:47.061Z,58.40
2018-09-20T19:55:14.620Z,58.50
2018-09-20T19:57:42.210Z,58.80
2018-09-20T20:00:09.903Z,58.60
2018-09-20T20:02:37.466Z,58.60
2018-09-20T20:05:05.492Z,58.50
2018-09-20T20:07:33.795Z,58.50
2018-09-20T20:10:02.250Z,58.40
2018-09-20T20:12:30.405Z,58.40
2018-09-20T20:14:58.441Z,58.50
2018-09-20T20:17:26.759Z,58.60
2018-09-20T20:19:54.437Z,58.70
2018-09-20T20:22:22.137Z,58.10
2018-09-20T20:24:49.772Z,58.70
2018-09-20T20:27:17.417Z,58.70
2018-09-20T20:29:44.979Z,58.60
2018-09-20T20:32:12.568Z,58.70
2018-09-20T20:34:40.148Z,58.70
2018-09-20T20:37:08.131Z,58.70
2018-09-20T20:39:35.698Z,58.60
2018-09-20T20:42:03.378Z,58.70
2018-09-20T20:44:31.164Z,58.80
2018-09-20T20:46:58.976Z,58.80
2018-09-20T20:49:26.924Z,58.80
2018-09-20T20:51:54.536Z,58.90
2018-09-20T20:54:22.144Z,59.00
2018-09-20T20:56:49.994Z,58.90
2018-09-20T20:59:17.856Z,59.00
2018-09-20T21:01:45.453Z,59.00
2018-09-20T21:04:13.034Z,59.10
2018-09-20T21:06:40.606Z,59.10
2018-09-20T21:09:08.601Z,59.20
2018-09-20T21:11:36.175Z,59.20
2018-09-20T21:14:03.860Z,59.30
2018-09-20T21:16:31.707Z,59.30
2018-09-20T21:18:59.679Z,59.40
2018-09-20T21:21:27.537Z,59.40
2018-09-20T21:23:55.234Z,59.30
2018-09-20T21:26:22.970Z,59.40
2018-09-20T21:28:50.538Z,59.50
2018-09-20T21:31:18.293Z,59.60
2018-09-20T21:33:45.852Z,59.70
2018-09-20T21:36:13.468Z,59.80
2018-09-20T21:38:41.028Z,59.90
2018-09-20T21:41:08.588Z,59.90
2018-09-20T21:43:36.204Z,60.00
2018-09-20T21:46:04.031Z,60.00
2018-09-20T21:48:32.001Z,60.10
2018-09-20T21:51:00.720Z,60.10
2018-09-20T21:53:28.630Z,60.10
2018-09-20T21:55:56.792Z,59.90
2018-09-20T21:58:24.456Z,60.20
2018-09-20T22:00:56.668Z,60.20
2018-09-20T22:03:24.320Z,60.20
2018-09-20T22:05:51.969Z,60.20
2018-09-20T22:08:19.718Z,60.30
2018-09-20T22:10:47.440Z,60.30
2018-09-20T22:13:15.051Z,60.30
2018-09-20T22:15:42.630Z,60.80
2018-09-20T22:18:10.405Z,60.50
2018-09-20T22:20:37.944Z,60.40
2018-09-20T22:23:05.600Z,60.50
2018-09-20T22:25:33.220Z,60.60
2018-09-20T22:28:00.923Z,60.50
2018-09-20T22:30:29.819Z,60.70
2018-09-20T22:32:57.554Z,60.70
2018-09-20T22:35:25.470Z,60.80
2018-09-20T22:37:53.037Z,60.80
2018-09-20T22:40:20.718Z,60.70
2018-09-20T22:42:48.405Z,60.80
2018-09-20T22:45:16.041Z,60.80
2018-09-20T22:47:43.639Z,60.70
2018-09-20T22:50:11.248Z,60.80
2018-09-20T22:52:38.854Z,60.80
2018-09-20T22:55:06.417Z,60.90
2018-09-20T22:57:34.137Z,60.90
2018-09-20T23:00:01.898Z,60.80
2018-09-20T23:02:29.727Z,60.80
2018-09-20T23:04:57.481Z,60.80
2018-09-20T23:07:25.167Z,60.80
2018-09-20T23:09:52.834Z,60.60
2018-09-20T23:12:20.480Z,60.70
2018-09-20T23:14:48.077Z,60.90
2018-09-20T23:17:15.660Z,60.80
2018-09-20T23:19:43.260Z,60.70
2018-09-20T23:22:10.874Z,60.80
2018-09-20T23:24:39.632Z,61.00
2018-09-20T23:27:07.300Z,61.10
2018-09-20T23:29:35.126Z,61.10
2018-09-20T23:32:03.081Z,61.10
2018-09-20T23:34:30.984Z,61.10
2018-09-20T23:36:58.869Z,61.00
2018-09-20T23:39:27.322Z,60.80
2018-09-20T23:41:55.342Z,61.00
2018-09-20T23:44:23.253Z,61.00
2018-09-20T23:46:50.853Z,61.00
2018-09-20T23:49:18.569Z,61.00
2018-09-20T23:51:46.151Z,61.10
2018-09-20T23:54:13.748Z,61.10
2018-09-20T23:56:41.455Z,61.20
2018-09-20T23:59:09.053Z,61.20
